Cannelburg, Indiana
Current Conditions -  °F | °C
As of 10:15 AM on Thursday 25 Dec 2014 (Local Time) from KDCY Reporting Station
Overcast Overcast  
Wind Chill: 33°   Ceiling: 2500
Heat Index: 40°   Visibility: 10mi
Dew Point: 30°   Wind: 10mph
Humidity: 69%   Direction: 220°SW
Pressure: 30.14"   Gusts: NA
Location:  38.67°N, 87°W
Report Text: KDCY 251615Z AUTO 22009KT 10SM OVC025 04/M01 A3014 RMK AO2 T00421011
Loading
Personal Weather Stations






























Interactive Weather Map New forecast layout! Learn more

10-Day Weather Forecast

Advertisements
Track Severe Weather on mobile